African Hhb — D5DI8 — position and weather

sailwx.info

Track history (hours):
 
Tides and Currents Weather Stations Pressure Air Temp Water Temp Dewpoint Dewpoint Depression Visibility Wind Speed Wind Dir Waves Ship Positions

African Hhb

Last reported at 2017-Sep-12 22:12 UTC. Time now 2017-Sep-24 05:17 UTC.
Position N 27°43' W 015°20'.
Warning: this ship's position is 11 days out of date.

Length 175 m; draft 9.2 m.

Type: Cargo ship. MMSI: 636015891.

Date/timePositionNaut miles runAvg speedWind from/ knotsBaromVisibWave heightAir tempDewpointWater temp
2017-Sep-12 22:12N 27°43' W 015°20'314.7
2017-Sep-12 22:00N 27°45' W 015°18'714.2
2017-Sep-12 21:30N 27°52' W 015°17'713.8
2017-Sep-12 21:00N 27°59' W 015°17'713.2
2017-Sep-12 20:30N 28°05' W 015°19'5 9.7
2017-Sep-12 20:00N 28°07' W 015°24'0 0.8
2017-Sep-12 19:27N 28°06' W 015°24'0 0.0
2017-Sep-12 19:00N 28°06' W 015°24'0 0.0
2017-Sep-12 18:30N 28°06' W 015°24'0 0.0
2017-Sep-12 18:00N 28°06' W 015°24'0 0.0
2017-Sep-12 17:15N 28°06' W 015°24'0 0.0
2017-Sep-12 17:00N 28°06' W 015°24'0 0.1
2017-Sep-12 16:30N 28°06' W 015°24'0 0.0
2017-Sep-12 16:00N 28°06' W 015°24'0 0.0
2017-Sep-12 15:30N 28°06' W 015°24'0 0.0
2017-Sep-12 15:00N 28°06' W 015°24'0 0.0
2017-Sep-12 14:30N 28°06' W 015°24'0 0.0
2017-Sep-12 14:00N 28°06' W 015°24'0 0.0
2017-Sep-12 13:30N 28°06' W 015°24'0 0.0
2017-Sep-12 13:00N 28°06' W 015°24'0 0.0
2017-Sep-12 12:21N 28°06' W 015°24'0 0.1
2017-Sep-12 11:51N 28°06' W 015°24'0 0.0
2017-Sep-12 11:21N 28°06' W 015°24'0 0.0
2017-Sep-12 10:54N 28°06' W 015°24'0 0.0
2017-Sep-12 10:24N 28°06' W 015°24'0 0.1
2017-Sep-12 09:54N 28°06' W 015°24'0 0.0
2017-Sep-12 09:24N 28°06' W 015°24'0 0.0
2017-Sep-12 08:57N 28°06' W 015°24'0 0.0
2017-Sep-12 08:27N 28°06' W 015°24'0 0.1
2017-Sep-12 07:57N 28°06' W 015°24'0 0.3
2017-Sep-12 07:27N 28°07' W 015°24'1 1.3
2017-Sep-12 07:00N 28°07' W 015°24'2 4.0
2017-Sep-12 06:30N 28°08' W 015°22'2 4.6
2017-Sep-12 06:00N 28°10' W 015°21'3 5.3
2017-Sep-12 05:30N 28°13' W 015°20'5 9.2
2017-Sep-12 05:00N 28°17' W 015°17'612.0
2017-Sep-12 04:30N 28°22' W 015°14'713.0
2017-Sep-12 04:00N 28°28' W 015°12'713.1
2017-Sep-12 03:30N 28°35' W 015°10'713.4
2017-Sep-12 03:01N 28°41' W 015°09'713.2
2017-Sep-12 02:30N 28°47' W 015°07'713.2
2017-Sep-12 01:59N 28°54' W 015°05'  
2017-Sep-07 15:38N 49°36' W 003°59'212.7
2017-Sep-07 15:30N 49°36' W 003°56'713.2
2017-Sep-07 14:56N 49°40' W 003°47'613.9
2017-Sep-07 14:31N 49°43' W 003°39'714.4
2017-Sep-07 14:01N 49°47' W 003°29'714.7
2017-Sep-07 13:31N 49°51' W 003°19'714.7
2017-Sep-07 13:01N 49°54' W 003°09'713.7
2017-Sep-07 12:31N 49°58' W 003°00'612.6
2017-Sep-07 12:00N 49°60' W 002°51'612.8
2017-Sep-07 11:30N 50°01' W 002°41'3410.9
2017-Sep-07 08:25N 50°10' W 001°51'4 9.4
2017-Sep-07 07:58N 50°11' W 001°44'4 9.6
2017-Sep-07 07:30N 50°13' W 001°38'510.1
2017-Sep-07 07:00N 50°15' W 001°30'611.1
2017-Sep-07 06:30N 50°16' W 001°22'3814.2
2017-Sep-07 03:49N 50°27' W 000°25'414.3
2017-Sep-07 03:30N 50°28' W 000°18'714.8
2017-Sep-07 03:00N 50°30' W 000°06'714.7
2017-Sep-07 02:30N 50°32' E 000°05'714.4
2017-Sep-07 02:00N 50°34' E 000°16'714.0
2017-Sep-07 01:30N 50°35' E 000°26'713.5
2017-Sep-07 01:00N 50°37' E 000°36'713.1
2017-Sep-07 00:30N 50°41' E 000°45'612.5
2017-Sep-07 00:00N 50°44' E 000°54'611.9
2017-Sep-06 23:30N 50°47' E 001°02'611.7
2017-Sep-06 23:00N 50°51' E 001°09'611.7
2017-Sep-06 22:30N 50°54' E 001°16'612.0
2017-Sep-06 22:00N 50°58' E 001°23'713.7
2017-Sep-06 21:30N 51°04' E 001°31'815.2
2017-Sep-06 21:00N 51°09' E 001°39'815.7
2017-Sep-06 20:30N 51°15' E 001°47'815.9
2017-Sep-06 20:00N 51°22' E 001°53'815.3
2017-Sep-06 19:30N 51°28' E 002°00'714.6
2017-Sep-06 19:00N 51°34' E 002°07'714.3
2017-Sep-06 18:30N 51°40' E 002°15'714.0
2017-Sep-06 18:00N 51°45' E 002°22'23912.1
2017-Sep-05 22:11N 54°02' E 007°48'312.7
2017-Sep-05 21:57N 54°02' E 007°53'612.3
2017-Sep-05 21:30N 54°01' E 008°02'611.1
2017-Sep-05 20:58N 54°01' E 008°12'1010.4
2017-Sep-05 20:01N 53°59' E 008°29'010.6
2017-Sep-05 19:59N 53°59' E 008°29'611.5
2017-Sep-05 19:29N 53°57' E 008°38'714.0
2017-Sep-05 19:00N 53°51' E 008°45'714.2
2017-Sep-05 18:30N 53°51' E 008°57'713.2
2017-Sep-05 18:00N 53°53' E 009°08'713.1
2017-Sep-05 17:30N 53°51' E 009°19'714.9
2017-Sep-05 17:01N 53°45' E 009°25'714.5
2017-Sep-05 16:30N 53°39' E 009°31'713.3
2017-Sep-05 16:01N 53°34' E 009°39'611.3
2017-Sep-05 15:30N 53°33' E 009°49'4 7.9
2017-Sep-05 15:01N 53°32' E 009°55'3 5.6
2017-Sep-05 14:30N 53°30' E 009°58'1 2.3
2017-Sep-05 13:58N 53°29' E 009°59'0 0.0
2017-Sep-05 13:28N 53°29' E 009°59'0 0.0
2017-Sep-05 12:58N 53°29' E 009°59'0 0.0
2017-Sep-05 12:28N 53°29' E 009°59'0 0.0
2017-Sep-05 11:58N 53°29' E 009°59'0 0.0
2017-Sep-05 11:28N 53°29' E 009°59'0 0.0
2017-Sep-05 10:58N 53°29' E 009°59'0 0.0
2017-Sep-05 10:28N 53°29' E 009°59'0 0.0
2017-Sep-05 09:58N 53°29' E 009°59'0 0.0
2017-Sep-05 09:28N 53°29' E 009°59'0 0.0
2017-Sep-05 08:58N 53°29' E 009°59'0 0.0
2017-Sep-05 08:28N 53°29' E 009°59'0 0.0
2017-Sep-05 07:58N 53°29' E 009°59'0 0.0
2017-Sep-05 07:28N 53°29' E 009°59'0 0.0
2017-Sep-05 06:58N 53°29' E 009°59'0 0.0
2017-Sep-05 06:25N 53°29' E 009°59'0 0.0
2017-Sep-05 05:58N 53°29' E 009°59'0 0.0
2017-Sep-05 05:28N 53°29' E 009°59'0 0.0
2017-Sep-05 04:58N 53°29' E 009°59'0 0.0
2017-Sep-05 04:28N 53°29' E 009°59'0 0.0
2017-Sep-05 03:58N 53°29' E 009°59'0 0.0
2017-Sep-05 03:28N 53°29' E 009°59'0 0.0
2017-Sep-05 02:58N 53°29' E 009°59'0 0.0
2017-Sep-05 02:28N 53°29' E 009°59'0 0.0
2017-Sep-05 01:58N 53°29' E 009°59'0 0.0
2017-Sep-05 01:25N 53°29' E 009°59'0 0.0
2017-Sep-05 00:58N 53°29' E 009°59'0 0.0
2017-Sep-05 00:28N 53°29' E 009°59'0 0.0
2017-Sep-04 23:58N 53°29' E 009°59'0 0.0
2017-Sep-04 23:28N 53°29' E 009°59'0 0.0
2017-Sep-04 22:58N 53°29' E 009°59'0 0.0
2017-Sep-04 22:28N 53°29' E 009°59'0 0.0
2017-Sep-04 21:58N 53°29' E 009°59'0 0.0
2017-Sep-04 21:28N 53°29' E 009°59'0 0.0
2017-Sep-04 20:58N 53°29' E 009°59'0 0.0
2017-Sep-04 20:28N 53°29' E 009°59'0 0.0
2017-Sep-04 19:58N 53°29' E 009°59'0 0.0
2017-Sep-04 19:28N 53°29' E 009°59'0 0.0
2017-Sep-04 18:55N 53°29' E 009°59'0 0.0
2017-Sep-04 18:28N 53°29' E 009°59'0 0.0
2017-Sep-04 17:58N 53°29' E 009°59'0 0.0
2017-Sep-04 17:28N 53°29' E 009°59'0 0.0
2017-Sep-04 16:58N 53°29' E 009°59'0 0.0
2017-Sep-04 16:28N 53°29' E 009°59'0 0.0
2017-Sep-04 15:58N 53°29' E 009°59'0 0.0
2017-Sep-04 15:28N 53°29' E 009°59'0 0.0
2017-Sep-04 14:58N 53°29' E 009°59'0 0.0
2017-Sep-04 14:28N 53°29' E 009°59'0 0.0
2017-Sep-04 13:58N 53°29' E 009°59'0 0.0
2017-Sep-04 13:28N 53°29' E 009°59'0 0.0
2017-Sep-04 12:58N 53°29' E 009°59'0 0.0
2017-Sep-04 12:28N 53°29' E 009°59'0 0.0
2017-Sep-04 11:58N 53°29' E 009°59'0 0.0
2017-Sep-04 11:28N 53°29' E 009°59'0 0.0
2017-Sep-04 10:58N 53°29' E 009°59'0 0.0
2017-Sep-04 10:28N 53°29' E 009°59'0 0.0
2017-Sep-04 09:58N 53°29' E 009°59'0 0.0
2017-Sep-04 09:28N 53°29' E 009°59'0 0.0
2017-Sep-04 08:58N 53°29' E 009°59'0 0.0
2017-Sep-04 08:28N 53°29' E 009°59'0 0.0
2017-Sep-04 07:58N 53°29' E 009°59'0 0.0
2017-Sep-04 07:28N 53°29' E 009°59'0 0.0
2017-Sep-04 06:55N 53°29' E 009°59'0 0.0
2017-Sep-04 06:28N 53°29' E 009°59'0 0.0
2017-Sep-04 05:58N 53°29' E 009°59'0 0.0
2017-Sep-04 05:28N 53°29' E 009°59'0 0.0
2017-Sep-04 04:58N 53°29' E 009°59'0 0.0
2017-Sep-04 04:28N 53°29' E 009°59'0 0.0
2017-Sep-04 03:58N 53°29' E 009°59'0 0.0
2017-Sep-04 03:28N 53°29' E 009°59'0 0.0
2017-Sep-04 02:58N 53°29' E 009°59'0 0.0
2017-Sep-04 02:28N 53°29' E 009°59'0 0.0
2017-Sep-04 01:58N 53°29' E 009°59'0 0.0
2017-Sep-04 01:28N 53°29' E 009°59'0 0.0
2017-Sep-04 00:58N 53°29' E 009°59'0 0.0
2017-Sep-04 00:28N 53°29' E 009°59'0 0.0
2017-Sep-03 23:58N 53°29' E 009°59'0 0.0
2017-Sep-03 23:25N 53°29' E 009°59'0 0.0
2017-Sep-03 22:58N 53°29' E 009°59'0 0.0
2017-Sep-03 22:28N 53°29' E 009°59'0 0.0
2017-Sep-03 21:58N 53°29' E 009°59'0 0.0
2017-Sep-03 21:28N 53°29' E 009°59'0 0.0
2017-Sep-03 20:58N 53°29' E 009°59'0 0.0
2017-Sep-03 20:28N 53°29' E 009°59'0 0.0
2017-Sep-03 19:58N 53°29' E 009°59'0 0.0
2017-Sep-03 19:28N 53°29' E 009°59'0 0.0
2017-Sep-03 18:55N 53°29' E 009°59'0 0.0
2017-Sep-03 18:25N 53°29' E 009°59'0 0.0
2017-Sep-03 17:55N 53°29' E 009°59'0 0.0
2017-Sep-03 17:28N 53°29' E 009°59'0 0.0
2017-Sep-03 16:58N 53°29' E 009°59'0 0.0
2017-Sep-03 16:28N 53°29' E 009°59'0 0.0
2017-Sep-03 15:58N 53°29' E 009°59'0 0.0
2017-Sep-03 15:28N 53°29' E 009°59'0 0.0
2017-Sep-03 14:58N 53°29' E 009°59'0 0.0
2017-Sep-03 13:58N 53°29' E 009°59'0 0.0
2017-Sep-03 13:28N 53°29' E 009°59'0 0.0
2017-Sep-03 12:58N 53°29' E 009°59'0 0.0
2017-Sep-03 12:28N 53°29' E 009°59'0 0.0
2017-Sep-03 11:58N 53°29' E 009°59'0 0.0
2017-Sep-03 11:28N 53°29' E 009°59'0 0.0
2017-Sep-03 10:58N 53°29' E 009°59'0 0.0
2017-Sep-03 10:28N 53°29' E 009°59'0 0.0
2017-Sep-03 09:58N 53°29' E 009°59'0 0.0
2017-Sep-03 09:28N 53°29' E 009°59'0 0.0
2017-Sep-03 08:58N 53°29' E 009°59'0 0.0
2017-Sep-03 08:28N 53°29' E 009°59'0 0.0
2017-Sep-03 07:58N 53°29' E 009°59'0 0.0
2017-Sep-03 07:28N 53°29' E 009°59'0 0.0
2017-Sep-03 06:58N 53°29' E 009°59'0 0.0
2017-Sep-03 06:28N 53°29' E 009°59'0 0.0
2017-Sep-03 05:58N 53°29' E 009°59'0 0.0
2017-Sep-03 05:28N 53°29' E 009°59'0 0.0
2017-Sep-03 04:58N 53°29' E 009°59'0 0.0
2017-Sep-03 04:28N 53°29' E 009°59'0 0.0
2017-Sep-03 03:58N 53°29' E 009°59'0 0.0
2017-Sep-03 03:28N 53°29' E 009°59'0 0.0
2017-Sep-03 02:58N 53°29' E 009°59'0 0.0
2017-Sep-03 02:28N 53°29' E 009°59'0 0.0
2017-Sep-03 01:58N 53°29' E 009°59'0 0.0
2017-Sep-03 01:28N 53°29' E 009°59'0 0.0
2017-Sep-03 00:58N 53°29' E 009°59'0 0.0
2017-Sep-03 00:28N 53°29' E 009°59'0 0.0
2017-Sep-02 23:58N 53°29' E 009°59'0 0.0
2017-Sep-02 23:28N 53°29' E 009°59'0 0.0
2017-Sep-02 22:58N 53°29' E 009°59'0 0.0
2017-Sep-02 22:28N 53°29' E 009°59'  
Track history (hours):
 
Tides and Currents Weather Stations Pressure Air Temp Water Temp Dewpoint Dewpoint Depression Visibility Wind Speed Wind Dir Waves Ship Positions

African Hhb

Last reported at 2017-Sep-12 22:12 UTC. Time now 2017-Sep-24 05:17 UTC.
Position N 27°43' W 015°20'.
Warning: this ship's position is 11 days out of date.

Length 175 m; draft 9.2 m.

Type: Cargo ship. MMSI: 636015891.

Date/timePositionNaut miles runAvg speedWind from/ knotsBaromVisibWave heightAir tempDewpointWater temp
2017-Sep-12 22:12N 27°43' W 015°20'314.7
2017-Sep-12 22:00N 27°45' W 015°18'714.2
2017-Sep-12 21:30N 27°52' W 015°17'713.8
2017-Sep-12 21:00N 27°59' W 015°17'713.2
2017-Sep-12 20:30N 28°05' W 015°19'5 9.7
2017-Sep-12 20:00N 28°07' W 015°24'0 0.8
2017-Sep-12 19:27N 28°06' W 015°24'0 0.0
2017-Sep-12 19:00N 28°06' W 015°24'0 0.0
2017-Sep-12 18:30N 28°06' W 015°24'0 0.0
2017-Sep-12 18:00N 28°06' W 015°24'0 0.0
2017-Sep-12 17:15N 28°06' W 015°24'0 0.0
2017-Sep-12 17:00N 28°06' W 015°24'0 0.1
2017-Sep-12 16:30N 28°06' W 015°24'0 0.0
2017-Sep-12 16:00N 28°06' W 015°24'0 0.0
2017-Sep-12 15:30N 28°06' W 015°24'0 0.0
2017-Sep-12 15:00N 28°06' W 015°24'0 0.0
2017-Sep-12 14:30N 28°06' W 015°24'0 0.0
2017-Sep-12 14:00N 28°06' W 015°24'0 0.0
2017-Sep-12 13:30N 28°06' W 015°24'0 0.0
2017-Sep-12 13:00N 28°06' W 015°24'0 0.0
2017-Sep-12 12:21N 28°06' W 015°24'0 0.1
2017-Sep-12 11:51N 28°06' W 015°24'0 0.0
2017-Sep-12 11:21N 28°06' W 015°24'0 0.0
2017-Sep-12 10:54N 28°06' W 015°24'0 0.0
2017-Sep-12 10:24N 28°06' W 015°24'0 0.1
2017-Sep-12 09:54N 28°06' W 015°24'0 0.0
2017-Sep-12 09:24N 28°06' W 015°24'0 0.0
2017-Sep-12 08:57N 28°06' W 015°24'0 0.0
2017-Sep-12 08:27N 28°06' W 015°24'0 0.1
2017-Sep-12 07:57N 28°06' W 015°24'0 0.3
2017-Sep-12 07:27N 28°07' W 015°24'1 1.3
2017-Sep-12 07:00N 28°07' W 015°24'2 4.0
2017-Sep-12 06:30N 28°08' W 015°22'2 4.6
2017-Sep-12 06:00N 28°10' W 015°21'3 5.3
2017-Sep-12 05:30N 28°13' W 015°20'5 9.2
2017-Sep-12 05:00N 28°17' W 015°17'612.0
2017-Sep-12 04:30N 28°22' W 015°14'713.0
2017-Sep-12 04:00N 28°28' W 015°12'713.1
2017-Sep-12 03:30N 28°35' W 015°10'713.4
2017-Sep-12 03:01N 28°41' W 015°09'713.2
2017-Sep-12 02:30N 28°47' W 015°07'713.2
2017-Sep-12 01:59N 28°54' W 015°05'  
2017-Sep-07 15:38N 49°36' W 003°59'212.7
2017-Sep-07 15:30N 49°36' W 003°56'713.2
2017-Sep-07 14:56N 49°40' W 003°47'613.9
2017-Sep-07 14:31N 49°43' W 003°39'714.4
2017-Sep-07 14:01N 49°47' W 003°29'714.7
2017-Sep-07 13:31N 49°51' W 003°19'714.7
2017-Sep-07 13:01N 49°54' W 003°09'713.7
2017-Sep-07 12:31N 49°58' W 003°00'612.6
2017-Sep-07 12:00N 49°60' W 002°51'612.8
2017-Sep-07 11:30N 50°01' W 002°41'3410.9
2017-Sep-07 08:25N 50°10' W 001°51'4 9.4
2017-Sep-07 07:58N 50°11' W 001°44'4 9.6
2017-Sep-07 07:30N 50°13' W 001°38'510.1
2017-Sep-07 07:00N 50°15' W 001°30'611.1
2017-Sep-07 06:30N 50°16' W 001°22'3814.2
2017-Sep-07 03:49N 50°27' W 000°25'414.3
2017-Sep-07 03:30N 50°28' W 000°18'714.8
2017-Sep-07 03:00N 50°30' W 000°06'714.7
2017-Sep-07 02:30N 50°32' E 000°05'714.4
2017-Sep-07 02:00N 50°34' E 000°16'714.0
2017-Sep-07 01:30N 50°35' E 000°26'713.5
2017-Sep-07 01:00N 50°37' E 000°36'713.1
2017-Sep-07 00:30N 50°41' E 000°45'612.5
2017-Sep-07 00:00N 50°44' E 000°54'611.9
2017-Sep-06 23:30N 50°47' E 001°02'611.7
2017-Sep-06 23:00N 50°51' E 001°09'611.7
2017-Sep-06 22:30N 50°54' E 001°16'612.0
2017-Sep-06 22:00N 50°58' E 001°23'713.7
2017-Sep-06 21:30N 51°04' E 001°31'815.2
2017-Sep-06 21:00N 51°09' E 001°39'815.7
2017-Sep-06 20:30N 51°15' E 001°47'815.9
2017-Sep-06 20:00N 51°22' E 001°53'815.3
2017-Sep-06 19:30N 51°28' E 002°00'714.6
2017-Sep-06 19:00N 51°34' E 002°07'714.3
2017-Sep-06 18:30N 51°40' E 002°15'714.0
2017-Sep-06 18:00N 51°45' E 002°22'23912.1
2017-Sep-05 22:11N 54°02' E 007°48'312.7
2017-Sep-05 21:57N 54°02' E 007°53'612.3
2017-Sep-05 21:30N 54°01' E 008°02'611.1
2017-Sep-05 20:58N 54°01' E 008°12'1010.4
2017-Sep-05 20:01N 53°59' E 008°29'010.6
2017-Sep-05 19:59N 53°59' E 008°29'611.5
2017-Sep-05 19:29N 53°57' E 008°38'714.0
2017-Sep-05 19:00N 53°51' E 008°45'714.2
2017-Sep-05 18:30N 53°51' E 008°57'713.2
2017-Sep-05 18:00N 53°53' E 009°08'713.1
2017-Sep-05 17:30N 53°51' E 009°19'714.9
2017-Sep-05 17:01N 53°45' E 009°25'714.5
2017-Sep-05 16:30N 53°39' E 009°31'713.3
2017-Sep-05 16:01N 53°34' E 009°39'611.3
2017-Sep-05 15:30N 53°33' E 009°49'4 7.9
2017-Sep-05 15:01N 53°32' E 009°55'3 5.6
2017-Sep-05 14:30N 53°30' E 009°58'1 2.3
2017-Sep-05 13:58N 53°29' E 009°59'0 0.0
2017-Sep-05 13:28N 53°29' E 009°59'0 0.0
2017-Sep-05 12:58N 53°29' E 009°59'0 0.0
2017-Sep-05 12:28N 53°29' E 009°59'0 0.0
2017-Sep-05 11:58N 53°29' E 009°59'0 0.0
2017-Sep-05 11:28N 53°29' E 009°59'0 0.0
2017-Sep-05 10:58N 53°29' E 009°59'0 0.0
2017-Sep-05 10:28N 53°29' E 009°59'0 0.0
2017-Sep-05 09:58N 53°29' E 009°59'0 0.0
2017-Sep-05 09:28N 53°29' E 009°59'0 0.0
2017-Sep-05 08:58N 53°29' E 009°59'0 0.0
2017-Sep-05 08:28N 53°29' E 009°59'0 0.0
2017-Sep-05 07:58N 53°29' E 009°59'0 0.0
2017-Sep-05 07:28N 53°29' E 009°59'0 0.0
2017-Sep-05 06:58N 53°29' E 009°59'0 0.0
2017-Sep-05 06:25N 53°29' E 009°59'0 0.0
2017-Sep-05 05:58N 53°29' E 009°59'0 0.0
2017-Sep-05 05:28N 53°29' E 009°59'0 0.0
2017-Sep-05 04:58N 53°29' E 009°59'0 0.0
2017-Sep-05 04:28N 53°29' E 009°59'0 0.0
2017-Sep-05 03:58N 53°29' E 009°59'0 0.0
2017-Sep-05 03:28N 53°29' E 009°59'0 0.0
2017-Sep-05 02:58N 53°29' E 009°59'0 0.0
2017-Sep-05 02:28N 53°29' E 009°59'0 0.0
2017-Sep-05 01:58N 53°29' E 009°59'0 0.0
2017-Sep-05 01:25N 53°29' E 009°59'0 0.0
2017-Sep-05 00:58N 53°29' E 009°59'0 0.0
2017-Sep-05 00:28N 53°29' E 009°59'0 0.0
2017-Sep-04 23:58N 53°29' E 009°59'0 0.0
2017-Sep-04 23:28N 53°29' E 009°59'0 0.0
2017-Sep-04 22:58N 53°29' E 009°59'0 0.0
2017-Sep-04 22:28N 53°29' E 009°59'0 0.0
2017-Sep-04 21:58N 53°29' E 009°59'0 0.0
2017-Sep-04 21:28N 53°29' E 009°59'0 0.0
2017-Sep-04 20:58N 53°29' E 009°59'0 0.0
2017-Sep-04 20:28N 53°29' E 009°59'0 0.0
2017-Sep-04 19:58N 53°29' E 009°59'0 0.0
2017-Sep-04 19:28N 53°29' E 009°59'0 0.0
2017-Sep-04 18:55N 53°29' E 009°59'0 0.0
2017-Sep-04 18:28N 53°29' E 009°59'0 0.0
2017-Sep-04 17:58N 53°29' E 009°59'0 0.0
2017-Sep-04 17:28N 53°29' E 009°59'0 0.0
2017-Sep-04 16:58N 53°29' E 009°59'0 0.0
2017-Sep-04 16:28N 53°29' E 009°59'0 0.0
2017-Sep-04 15:58N 53°29' E 009°59'0 0.0
2017-Sep-04 15:28N 53°29' E 009°59'0 0.0
2017-Sep-04 14:58N 53°29' E 009°59'0 0.0
2017-Sep-04 14:28N 53°29' E 009°59'0 0.0
2017-Sep-04 13:58N 53°29' E 009°59'0 0.0
2017-Sep-04 13:28N 53°29' E 009°59'0 0.0
2017-Sep-04 12:58N 53°29' E 009°59'0 0.0
2017-Sep-04 12:28N 53°29' E 009°59'0 0.0
2017-Sep-04 11:58N 53°29' E 009°59'0 0.0
2017-Sep-04 11:28N 53°29' E 009°59'0 0.0
2017-Sep-04 10:58N 53°29' E 009°59'0 0.0
2017-Sep-04 10:28N 53°29' E 009°59'0 0.0
2017-Sep-04 09:58N 53°29' E 009°59'0 0.0
2017-Sep-04 09:28N 53°29' E 009°59'0 0.0
2017-Sep-04 08:58N 53°29' E 009°59'0 0.0
2017-Sep-04 08:28N 53°29' E 009°59'0 0.0
2017-Sep-04 07:58N 53°29' E 009°59'0 0.0
2017-Sep-04 07:28N 53°29' E 009°59'0 0.0
2017-Sep-04 06:55N 53°29' E 009°59'0 0.0
2017-Sep-04 06:28N 53°29' E 009°59'0 0.0
2017-Sep-04 05:58N 53°29' E 009°59'0 0.0
2017-Sep-04 05:28N 53°29' E 009°59'0 0.0
2017-Sep-04 04:58N 53°29' E 009°59'0 0.0
2017-Sep-04 04:28N 53°29' E 009°59'0 0.0
2017-Sep-04 03:58N 53°29' E 009°59'0 0.0
2017-Sep-04 03:28N 53°29' E 009°59'0 0.0
2017-Sep-04 02:58N 53°29' E 009°59'0 0.0
2017-Sep-04 02:28N 53°29' E 009°59'0 0.0
2017-Sep-04 01:58N 53°29' E 009°59'0 0.0
2017-Sep-04 01:28N 53°29' E 009°59'0 0.0
2017-Sep-04 00:58N 53°29' E 009°59'0 0.0
2017-Sep-04 00:28N 53°29' E 009°59'0 0.0
2017-Sep-03 23:58N 53°29' E 009°59'0 0.0
2017-Sep-03 23:25N 53°29' E 009°59'0 0.0
2017-Sep-03 22:58N 53°29' E 009°59'0 0.0
2017-Sep-03 22:28N 53°29' E 009°59'0 0.0
2017-Sep-03 21:58N 53°29' E 009°59'0 0.0
2017-Sep-03 21:28N 53°29' E 009°59'0 0.0
2017-Sep-03 20:58N 53°29' E 009°59'0 0.0
2017-Sep-03 20:28N 53°29' E 009°59'0 0.0
2017-Sep-03 19:58N 53°29' E 009°59'0 0.0
2017-Sep-03 19:28N 53°29' E 009°59'0 0.0
2017-Sep-03 18:55N 53°29' E 009°59'0 0.0
2017-Sep-03 18:25N 53°29' E 009°59'0 0.0
2017-Sep-03 17:55N 53°29' E 009°59'0 0.0
2017-Sep-03 17:28N 53°29' E 009°59'0 0.0
2017-Sep-03 16:58N 53°29' E 009°59'0 0.0
2017-Sep-03 16:28N 53°29' E 009°59'0 0.0
2017-Sep-03 15:58N 53°29' E 009°59'0 0.0
2017-Sep-03 15:28N 53°29' E 009°59'0 0.0
2017-Sep-03 14:58N 53°29' E 009°59'0 0.0
2017-Sep-03 13:58N 53°29' E 009°59'0 0.0
2017-Sep-03 13:28N 53°29' E 009°59'0 0.0
2017-Sep-03 12:58N 53°29' E 009°59'0 0.0
2017-Sep-03 12:28N 53°29' E 009°59'0 0.0
2017-Sep-03 11:58N 53°29' E 009°59'0 0.0
2017-Sep-03 11:28N 53°29' E 009°59'0 0.0
2017-Sep-03 10:58N 53°29' E 009°59'0 0.0
2017-Sep-03 10:28N 53°29' E 009°59'0 0.0
2017-Sep-03 09:58N 53°29' E 009°59'0 0.0
2017-Sep-03 09:28N 53°29' E 009°59'0 0.0
2017-Sep-03 08:58N 53°29' E 009°59'0 0.0
2017-Sep-03 08:28N 53°29' E 009°59'0 0.0
2017-Sep-03 07:58N 53°29' E 009°59'0 0.0
2017-Sep-03 07:28N 53°29' E 009°59'0 0.0
2017-Sep-03 06:58N 53°29' E 009°59'0 0.0
2017-Sep-03 06:28N 53°29' E 009°59'0 0.0
2017-Sep-03 05:58N 53°29' E 009°59'0 0.0
2017-Sep-03 05:28N 53°29' E 009°59'0 0.0
2017-Sep-03 04:58N 53°29' E 009°59'0 0.0
2017-Sep-03 04:28N 53°29' E 009°59'0 0.0
2017-Sep-03 03:58N 53°29' E 009°59'0 0.0
2017-Sep-03 03:28N 53°29' E 009°59'0 0.0
2017-Sep-03 02:58N 53°29' E 009°59'0 0.0
2017-Sep-03 02:28N 53°29' E 009°59'0 0.0
2017-Sep-03 01:58N 53°29' E 009°59'0 0.0
2017-Sep-03 01:28N 53°29' E 009°59'0 0.0
2017-Sep-03 00:58N 53°29' E 009°59'0 0.0
2017-Sep-03 00:28N 53°29' E 009°59'0 0.0
2017-Sep-02 23:58N 53°29' E 009°59'0 0.0
2017-Sep-02 23:28N 53°29' E 009°59'0 0.0
2017-Sep-02 22:58N 53°29' E 009°59'0 0.0
2017-Sep-02 22:28N 53°29' E 009°59'  

Dump ship's entire track history